Rechercher aéroport 
image banner adimage banner adimage banner ad
image banner ad

A26 - Adin

Situé à Adin, United States

ICAO - A26, IATA -

Données fournies par Airmate  

Information générale

Coordonnées: N41°11'11" W120°57'16"
Élévation : 4234 feet MSL.
Variation magnétique : 17° East
Voir autres Aéroports à California

Données opérationnelles

Special qualification required
Heure actuelle UTC:
Heure actuelle locale:
Météo à : KAAT - Alturas Muni ( 46 km )
METAR: KAAT 020455Z AUTO 28005KT 10SM CLR 22/06 A3022 RMK AO2 SLP184 T02220056 $
Voir NOTAMs / SUP AIP / TFR affectant cet aéroport [VIEW]
Fréquences de communication: [VIEW]

Pistes:

Identifiant RWYQFULongueur (ft)Largeur (ft)SurfaceLDA (ft)
09285040ASPH
27285040ASPH

Coordonnées de l'aéroport

Adresse: Adin United States

Vue satellite de A26